createdAt,value
2023-03-07T00:00:16.327Z,5.80
2023-03-07T00:02:43.671Z,5.70
2023-03-07T00:05:10.805Z,5.70
2023-03-07T00:07:38.713Z,5.60
2023-03-07T00:10:06.135Z,5.50
2023-03-07T00:12:33.146Z,5.50
2023-03-07T00:15:00.280Z,5.60
2023-03-07T00:17:27.240Z,5.60
2023-03-07T00:19:54.292Z,5.60
2023-03-07T00:22:21.441Z,5.50
2023-03-07T00:24:48.858Z,5.50
2023-03-07T00:27:16.745Z,5.50
2023-03-07T00:29:43.509Z,5.50
2023-03-07T00:32:10.478Z,5.50
2023-03-07T00:34:37.480Z,5.40
2023-03-07T00:37:04.539Z,5.30
2023-03-07T00:39:31.554Z,5.30
2023-03-07T00:41:58.577Z,5.30
2023-03-07T00:44:30.148Z,5.30
2023-03-07T00:46:58.060Z,5.30
2023-03-07T00:49:25.148Z,5.30
2023-03-07T00:51:52.226Z,5.30
2023-03-07T00:54:19.172Z,5.40
2023-03-07T00:56:47.074Z,5.40
2023-03-07T00:59:14.978Z,5.40
2023-03-07T01:01:42.011Z,5.40
2023-03-07T01:04:09.121Z,5.30
2023-03-07T01:06:36.529Z,5.30
2023-03-07T01:09:07.321Z,5.30
2023-03-07T01:11:35.321Z,5.30
2023-03-07T01:14:04.504Z,5.20
2023-03-07T01:16:34.731Z,5.20
2023-03-07T01:19:04.987Z,5.30
2023-03-07T01:21:37.825Z,5.30
2023-03-07T01:24:12.799Z,5.30
2023-03-07T01:26:40.045Z,5.30
2023-03-07T01:29:07.459Z,5.30
2023-03-07T01:31:35.108Z,5.30
2023-03-07T01:34:03.557Z,5.30
2023-03-07T01:36:33.615Z,5.30
2023-03-07T01:39:06.329Z,5.30
2023-03-07T01:41:34.778Z,5.30
2023-03-07T01:44:05.284Z,5.30
2023-03-07T01:46:43.014Z,5.20
2023-03-07T01:49:34.521Z,5.30
2023-03-07T01:52:04.260Z,5.40
2023-03-07T01:54:34.366Z,5.30
2023-03-07T01:57:03.336Z,5.30
2023-03-07T01:59:36.898Z,5.30
2023-03-07T02:02:12.098Z,5.40
2023-03-07T02:04:45.370Z,5.30
2023-03-07T02:07:14.039Z,5.30
2023-03-07T02:09:42.732Z,5.30
2023-03-07T02:12:10.403Z,5.30
2023-03-07T02:14:37.530Z,5.40
2023-03-07T02:17:04.444Z,5.30
2023-03-07T02:19:57.704Z,5.30
2023-03-07T02:22:27.245Z,5.30
2023-03-07T02:25:00.305Z,5.30
2023-03-07T02:27:30.056Z,5.20
2023-03-07T02:29:56.787Z,5.30
2023-03-07T02:32:23.659Z,5.30
2023-03-07T02:34:50.605Z,5.40
2023-03-07T02:37:24.020Z,5.30
2023-03-07T02:39:51.290Z,5.30
2023-03-07T02:42:23.742Z,5.30
2023-03-07T02:45:18.376Z,5.30
2023-03-07T02:47:46.798Z,5.30
2023-03-07T02:50:15.630Z,5.40
2023-03-07T02:52:42.604Z,5.40
2023-03-07T02:55:09.772Z,5.50
2023-03-07T02:57:36.643Z,5.50
2023-03-07T03:00:07.407Z,5.60
2023-03-07T03:02:34.621Z,5.60
2023-03-07T03:05:01.624Z,5.60
2023-03-07T03:07:28.443Z,5.40
2023-03-07T03:09:55.673Z,5.40
2023-03-07T03:12:22.584Z,5.50
2023-03-07T03:14:49.632Z,5.60
2023-03-07T03:17:16.746Z,5.50
2023-03-07T03:19:43.918Z,5.50
2023-03-07T03:22:10.861Z,5.40
2023-03-07T03:24:42.400Z,5.40
2023-03-07T03:27:10.293Z,5.40
2023-03-07T03:29:37.054Z,5.30
2023-03-07T03:32:04.109Z,5.20
2023-03-07T03:34:31.099Z,5.30
2023-03-07T03:36:57.976Z,5.30
2023-03-07T03:39:26.113Z,5.30
2023-03-07T03:41:52.932Z,5.30
2023-03-07T03:44:19.969Z,5.40
2023-03-07T03:46:48.639Z,5.40
2023-03-07T03:49:16.886Z,5.40
2023-03-07T03:51:43.987Z,5.40
2023-03-07T03:54:11.801Z,5.30
2023-03-07T03:56:38.954Z,5.40
2023-03-07T03:59:05.990Z,5.30
2023-03-07T04:01:33.063Z,5.30
2023-03-07T04:04:00.117Z,5.30
2023-03-07T04:06:29.469Z,5.20
2023-03-07T04:08:56.869Z,5.10
2023-03-07T04:11:24.944Z,5.20
2023-03-07T04:13:52.613Z,5.20
2023-03-07T04:16:19.791Z,5.10
2023-03-07T04:18:46.860Z,5.10
2023-03-07T04:21:14.017Z,5.10
2023-03-07T04:23:41.179Z,5.10
2023-03-07T04:26:10.546Z,5.20
2023-03-07T04:28:45.248Z,5.20
2023-03-07T04:31:17.683Z,5.10
2023-03-07T04:33:45.486Z,5.20
2023-03-07T04:36:13.614Z,5.00
2023-03-07T04:38:41.092Z,5.00
2023-03-07T04:41:09.280Z,5.10
2023-03-07T04:43:37.434Z,5.20
2023-03-07T04:46:04.740Z,5.20
2023-03-07T04:48:32.921Z,5.20
2023-03-07T04:50:59.880Z,5.20
2023-03-07T04:53:26.995Z,5.30
2023-03-07T04:56:01.193Z,5.30
2023-03-07T04:58:29.108Z,5.30
2023-03-07T05:00:58.671Z,5.30
2023-03-07T05:03:26.674Z,5.20
2023-03-07T05:05:54.092Z,5.30
2023-03-07T05:08:22.923Z,5.50
2023-03-07T05:10:50.061Z,5.40
2023-03-07T05:13:18.011Z,5.30
2023-03-07T05:15:49.516Z,5.20
2023-03-07T05:18:16.921Z,5.10
2023-03-07T05:20:43.967Z,5.10
2023-03-07T05:23:11.055Z,5.10
2023-03-07T05:25:38.138Z,5.00
2023-03-07T05:28:05.150Z,5.10
2023-03-07T05:30:32.249Z,5.00
2023-03-07T05:32:59.311Z,5.00
2023-03-07T05:35:26.495Z,4.90
2023-03-07T05:37:53.555Z,5.00
2023-03-07T05:40:20.395Z,5.00
2023-03-07T05:42:47.474Z,5.00
2023-03-07T05:45:15.228Z,5.00
2023-03-07T05:47:42.320Z,5.00
2023-03-07T05:50:10.087Z,5.00
2023-03-07T05:52:36.828Z,5.00
2023-03-07T05:55:04.538Z,5.00
2023-03-07T05:57:31.341Z,5.00
2023-03-07T05:59:58.050Z,5.10
2023-03-07T06:02:25.204Z,5.10
2023-03-07T06:04:52.140Z,5.20
2023-03-07T06:07:19.995Z,5.20
2023-03-07T06:09:47.031Z,5.20
2023-03-07T06:12:14.160Z,5.20
2023-03-07T06:14:41.527Z,5.30
2023-03-07T06:17:08.538Z,5.30
2023-03-07T06:19:35.650Z,5.30
2023-03-07T06:22:02.632Z,5.30
2023-03-07T06:24:30.557Z,5.30
2023-03-07T06:26:57.740Z,5.30
2023-03-07T06:29:24.518Z,5.30
2023-03-07T06:31:51.279Z,5.40
2023-03-07T06:34:18.341Z,5.40
2023-03-07T06:36:46.246Z,5.40
2023-03-07T06:39:13.563Z,5.40
2023-03-07T06:41:41.548Z,5.40
2023-03-07T06:44:10.822Z,5.40
2023-03-07T06:46:37.634Z,5.40
2023-03-07T06:49:04.729Z,5.40
2023-03-07T06:51:31.814Z,5.50
2023-03-07T06:53:59.006Z,5.60
2023-03-07T06:56:29.766Z,5.60
2023-03-07T06:58:56.656Z,5.70
2023-03-07T07:01:23.530Z,5.80
2023-03-07T07:03:50.620Z,5.60
2023-03-07T07:06:17.786Z,5.50
2023-03-07T07:08:44.687Z,5.60
2023-03-07T07:11:11.767Z,5.70
2023-03-07T07:13:39.684Z,5.80
2023-03-07T07:16:08.152Z,5.70
2023-03-07T07:18:35.438Z,5.70
2023-03-07T07:21:02.469Z,5.70
2023-03-07T07:23:29.519Z,5.80
2023-03-07T07:25:56.519Z,5.80
2023-03-07T07:28:23.611Z,5.70
2023-03-07T07:30:50.401Z,5.70
2023-03-07T07:33:17.354Z,5.70
2023-03-07T07:35:45.154Z,5.60
2023-03-07T07:38:12.738Z,5.60
2023-03-07T07:40:40.058Z,5.50
2023-03-07T07:43:07.323Z,5.60
2023-03-07T07:45:34.067Z,5.60
2023-03-07T07:48:01.175Z,5.60
2023-03-07T07:50:28.288Z,5.70
2023-03-07T07:52:55.315Z,5.60
2023-03-07T07:55:22.447Z,5.70
2023-03-07T07:57:49.378Z,5.70
2023-03-07T08:00:21.127Z,5.60
2023-03-07T08:02:51.773Z,5.60
2023-03-07T08:05:20.600Z,5.50
2023-03-07T08:07:47.818Z,5.50
2023-03-07T08:10:16.489Z,5.60
2023-03-07T08:12:45.021Z,5.60
2023-03-07T08:15:12.887Z,5.60
2023-03-07T08:17:39.764Z,5.60
2023-03-07T08:20:10.600Z,5.60
2023-03-07T08:22:38.215Z,5.60
2023-03-07T08:25:06.438Z,5.60
2023-03-07T08:27:34.185Z,5.70
2023-03-07T08:30:01.521Z,5.70
2023-03-07T08:32:28.785Z,5.60
2023-03-07T08:34:56.006Z,5.60
2023-03-07T08:37:23.034Z,5.70
2023-03-07T08:39:50.144Z,5.60
2023-03-07T08:42:17.156Z,5.60
2023-03-07T08:44:44.249Z,5.50
2023-03-07T08:47:13.352Z,5.40
2023-03-07T08:49:41.045Z,5.50
2023-03-07T08:52:08.212Z,5.60
2023-03-07T08:54:35.287Z,5.70
2023-03-07T08:57:03.122Z,6.00
2023-03-07T08:59:30.135Z,6.10
2023-03-07T09:01:57.658Z,6.10
2023-03-07T09:04:24.838Z,6.30
2023-03-07T09:06:52.286Z,6.30
2023-03-07T09:09:19.135Z,6.30
2023-03-07T09:11:46.190Z,6.30
2023-03-07T09:14:13.226Z,6.30
2023-03-07T09:16:40.614Z,6.20
2023-03-07T09:19:07.754Z,6.20
2023-03-07T09:21:34.827Z,6.30
2023-03-07T09:24:01.896Z,6.30
2023-03-07T09:26:28.891Z,6.30
2023-03-07T09:28:55.929Z,6.20
2023-03-07T09:31:22.850Z,6.00
2023-03-07T09:33:50.020Z,5.90
2023-03-07T09:36:18.271Z,6.00
2023-03-07T09:38:46.133Z,5.90
2023-03-07T09:41:31.746Z,5.90
2023-03-07T09:44:16.016Z,6.10
2023-03-07T09:47:02.306Z,6.00
2023-03-07T09:49:49.996Z,6.00
2023-03-07T09:52:21.836Z,6.10
2023-03-07T09:55:01.113Z,6.10
2023-03-07T09:57:34.526Z,6.10
2023-03-07T10:00:10.824Z,6.10
2023-03-07T10:02:52.935Z,6.10
2023-03-07T10:05:37.543Z,6.10
2023-03-07T10:08:05.404Z,6.20
2023-03-07T10:10:52.436Z,6.30
2023-03-07T10:13:47.095Z,6.40
2023-03-07T10:16:41.958Z,6.60
2023-03-07T10:19:43.027Z,6.60
2023-03-07T10:22:24.266Z,6.70
2023-03-07T10:25:14.839Z,6.80
2023-03-07T10:27:42.786Z,6.60
2023-03-07T10:30:16.865Z,6.70
2023-03-07T10:32:55.892Z,6.60
2023-03-07T10:35:31.980Z,6.50
2023-03-07T10:38:20.329Z,6.50
2023-03-07T10:40:54.008Z,6.60
2023-03-07T10:43:32.286Z,6.60
2023-03-07T10:46:23.865Z,6.60
2023-03-07T10:49:13.585Z,6.70
2023-03-07T10:52:06.815Z,6.70
2023-03-07T10:54:38.718Z,6.90
2023-03-07T10:57:17.924Z,7.00
2023-03-07T10:59:49.953Z,6.90
2023-03-07T11:02:29.040Z,6.80
2023-03-07T11:04:57.210Z,6.80
2023-03-07T11:07:34.727Z,6.70
2023-03-07T11:10:22.504Z,6.70
2023-03-07T11:12:49.534Z,6.80
2023-03-07T11:15:23.572Z,6.80
2023-03-07T11:17:52.398Z,6.70
2023-03-07T11:20:30.489Z,6.70
2023-03-07T11:23:31.964Z,6.70
2023-03-07T11:26:22.740Z,6.90
2023-03-07T11:29:08.374Z,7.00
2023-03-07T11:31:41.065Z,7.00
2023-03-07T11:34:35.761Z,7.00
2023-03-07T11:37:40.086Z,7.10
2023-03-07T11:40:44.931Z,7.10
2023-03-07T11:43:31.933Z,7.00
2023-03-07T11:46:07.269Z,7.00
2023-03-07T11:49:03.163Z,7.00
2023-03-07T11:51:51.964Z,7.00
2023-03-07T11:54:27.954Z,7.10
2023-03-07T11:57:00.123Z,7.10
2023-03-07T11:59:56.664Z,7.30
2023-03-07T12:02:55.624Z,7.40
2023-03-07T12:05:44.389Z,7.40
2023-03-07T12:08:16.984Z,7.50
2023-03-07T12:10:54.518Z,7.50
2023-03-07T12:13:58.198Z,7.40
2023-03-07T12:16:31.567Z,7.30
2023-03-07T12:19:24.155Z,7.40
2023-03-07T12:22:15.646Z,7.50
2023-03-07T12:25:06.093Z,7.60
2023-03-07T12:27:41.770Z,7.70
2023-03-07T12:30:17.975Z,7.70
2023-03-07T12:32:46.134Z,7.80
2023-03-07T12:35:24.584Z,7.30
2023-03-07T12:38:13.670Z,6.40
2023-03-07T12:40:45.282Z,5.80
2023-03-07T12:43:18.370Z,5.60
2023-03-07T12:45:54.830Z,5.70
2023-03-07T12:48:40.386Z,5.80
2023-03-07T12:51:16.787Z,6.10
2023-03-07T12:54:21.321Z,6.30
2023-03-07T12:57:16.003Z,6.60
2023-03-07T12:59:44.089Z,6.40
2023-03-07T13:02:41.598Z,6.50
2023-03-07T13:05:19.486Z,6.50
2023-03-07T13:07:47.975Z,6.70
2023-03-07T13:10:21.165Z,6.70
2023-03-07T13:12:49.831Z,6.40
2023-03-07T13:15:20.921Z,6.10
2023-03-07T13:17:47.739Z,6.00
2023-03-07T13:20:34.239Z,6.20
2023-03-07T13:23:23.217Z,6.40
2023-03-07T13:25:56.878Z,6.60
2023-03-07T13:28:37.876Z,6.60
2023-03-07T13:31:16.530Z,6.60
2023-03-07T13:33:43.858Z,6.70
2023-03-07T13:36:37.810Z,6.60
2023-03-07T13:39:38.056Z,6.60
2023-03-07T13:42:25.293Z,6.80
2023-03-07T13:44:52.261Z,7.00
2023-03-07T13:47:42.877Z,7.10
2023-03-07T13:50:35.101Z,7.10
2023-03-07T13:53:11.833Z,7.10
2023-03-07T13:55:42.301Z,7.30
2023-03-07T13:58:32.900Z,7.40
2023-03-07T14:01:04.816Z,7.50
2023-03-07T14:03:42.370Z,7.50
2023-03-07T14:06:21.495Z,7.60
2023-03-07T14:08:50.165Z,7.50
2023-03-07T14:11:30.787Z,7.60
2023-03-07T14:14:18.994Z,7.20
2023-03-07T14:17:21.513Z,7.20
2023-03-07T14:19:56.169Z,7.20
2023-03-07T14:22:40.562Z,7.20
2023-03-07T14:25:22.067Z,7.20
2023-03-07T14:28:00.927Z,7.20
2023-03-07T14:30:31.417Z,7.30
2023-03-07T14:32:59.158Z,7.40
2023-03-07T14:35:38.200Z,7.50
2023-03-07T14:38:22.163Z,7.60
2023-03-07T14:40:57.354Z,7.90
2023-03-07T14:43:51.252Z,8.10
2023-03-07T14:46:27.318Z,8.00
2023-03-07T14:49:05.051Z,8.20
2023-03-07T14:51:35.033Z,8.40
2023-03-07T14:54:08.993Z,8.40
2023-03-07T14:56:37.870Z,8.40
2023-03-07T14:59:05.810Z,8.50
2023-03-07T15:01:37.682Z,8.50
2023-03-07T15:04:19.807Z,8.40
2023-03-07T15:06:46.654Z,8.10
2023-03-07T15:09:13.746Z,8.00
2023-03-07T15:11:48.786Z,7.80
2023-03-07T15:14:38.764Z,7.80
2023-03-07T15:17:12.378Z,7.80
2023-03-07T15:19:54.168Z,7.90
2023-03-07T15:22:39.422Z,7.90
2023-03-07T15:25:17.798Z,7.90
2023-03-07T15:27:44.683Z,7.90
2023-03-07T15:30:23.555Z,7.50
2023-03-07T15:33:23.182Z,6.70
2023-03-07T15:36:11.744Z,6.20
2023-03-07T15:38:43.350Z,6.30
2023-03-07T15:41:33.804Z,6.20
2023-03-07T15:44:19.552Z,6.30
2023-03-07T15:46:53.149Z,6.20
2023-03-07T15:49:20.227Z,6.20
2023-03-07T15:51:49.689Z,6.10
2023-03-07T15:54:39.312Z,6.00
2023-03-07T15:57:18.014Z,5.80
2023-03-07T15:59:52.150Z,5.60
2023-03-07T16:02:39.962Z,5.50
2023-03-07T16:05:29.067Z,5.40
2023-03-07T16:07:57.557Z,5.20
2023-03-07T16:10:28.334Z,5.00
2023-03-07T16:12:56.968Z,4.80
2023-03-07T16:15:24.486Z,4.80
2023-03-07T16:17:55.016Z,4.90
2023-03-07T16:20:25.905Z,4.70
2023-03-07T16:22:53.656Z,4.80
2023-03-07T16:25:22.001Z,4.60
2023-03-07T16:27:57.901Z,4.50
2023-03-07T16:30:27.688Z,4.50
2023-03-07T16:32:56.251Z,4.50
2023-03-07T16:35:26.051Z,4.50
2023-03-07T16:37:54.363Z,4.60
2023-03-07T16:40:22.868Z,4.60
2023-03-07T16:42:50.689Z,4.30
2023-03-07T16:45:28.075Z,4.20
2023-03-07T16:47:59.853Z,4.10
2023-03-07T16:50:32.092Z,4.00
2023-03-07T16:52:59.481Z,4.00
2023-03-07T16:55:26.836Z,4.20
2023-03-07T16:57:58.549Z,4.30
2023-03-07T17:00:26.877Z,4.40
2023-03-07T17:02:57.209Z,4.30
2023-03-07T17:05:27.330Z,4.30
2023-03-07T17:07:58.495Z,4.30
2023-03-07T17:10:26.679Z,4.40
2023-03-07T17:12:57.429Z,4.40
2023-03-07T17:15:30.478Z,4.40
2023-03-07T17:17:59.877Z,4.40
2023-03-07T17:20:27.726Z,4.40
2023-03-07T17:22:55.286Z,4.20
2023-03-07T17:25:23.082Z,4.20
2023-03-07T17:28:16.860Z,4.20
2023-03-07T17:30:45.607Z,4.00
2023-03-07T17:33:14.586Z,4.00
2023-03-07T17:35:42.421Z,3.90
2023-03-07T17:38:09.518Z,3.80
2023-03-07T17:40:37.049Z,3.80
2023-03-07T17:43:04.758Z,3.90
2023-03-07T17:45:31.904Z,4.00
2023-03-07T17:47:58.870Z,4.20
2023-03-07T17:50:26.060Z,4.30
2023-03-07T17:52:54.612Z,4.30
2023-03-07T17:55:24.998Z,4.30
2023-03-07T17:57:53.496Z,4.30
2023-03-07T18:00:21.237Z,4.40
2023-03-07T18:02:48.270Z,4.40
2023-03-07T18:05:16.729Z,4.60
2023-03-07T18:07:43.554Z,4.60
2023-03-07T18:10:11.602Z,4.70
2023-03-07T18:12:39.357Z,4.60
2023-03-07T18:15:13.045Z,4.70
2023-03-07T18:17:47.733Z,4.70
2023-03-07T18:20:19.756Z,4.70
2023-03-07T18:22:47.042Z,4.70
2023-03-07T18:25:16.040Z,4.60
2023-03-07T18:27:43.334Z,4.50
2023-03-07T18:30:11.862Z,4.40
2023-03-07T18:32:39.072Z,4.30
2023-03-07T18:35:06.615Z,4.20
2023-03-07T18:37:33.859Z,4.20
2023-03-07T18:40:00.940Z,4.20
2023-03-07T18:42:27.976Z,4.20
2023-03-07T18:44:55.022Z,4.40
2023-03-07T18:47:22.859Z,4.60
2023-03-07T18:49:51.336Z,4.70
2023-03-07T18:52:18.808Z,4.80
2023-03-07T18:54:45.665Z,4.80
2023-03-07T18:57:12.765Z,4.80
2023-03-07T18:59:39.536Z,4.70
2023-03-07T19:02:06.476Z,4.70
2023-03-07T19:04:33.446Z,4.70
2023-03-07T19:07:00.654Z,4.80
2023-03-07T19:09:27.859Z,4.60
2023-03-07T19:11:55.046Z,4.40
2023-03-07T19:14:22.062Z,4.20
2023-03-07T19:16:49.172Z,4.10
2023-03-07T19:19:16.167Z,4.00
2023-03-07T19:21:43.225Z,3.70
2023-03-07T19:24:11.911Z,3.50
2023-03-07T19:26:40.931Z,3.50
2023-03-07T19:29:09.730Z,3.60
2023-03-07T19:31:36.821Z,3.40
2023-03-07T19:34:06.151Z,3.30
2023-03-07T19:36:35.178Z,3.40
2023-03-07T19:39:03.338Z,3.60
2023-03-07T19:41:31.586Z,3.80
2023-03-07T19:43:59.937Z,4.00
2023-03-07T19:46:27.481Z,4.20
2023-03-07T19:48:54.298Z,4.40
2023-03-07T19:51:24.381Z,4.50
2023-03-07T19:53:51.835Z,4.70
2023-03-07T19:56:24.936Z,4.70
2023-03-07T19:58:51.875Z,4.80
2023-03-07T20:01:20.293Z,4.90
2023-03-07T20:03:47.847Z,4.90
2023-03-07T20:06:19.760Z,4.80
2023-03-07T20:08:51.608Z,4.40
2023-03-07T20:11:21.012Z,4.40
2023-03-07T20:13:49.113Z,4.10
2023-03-07T20:16:17.648Z,3.90
2023-03-07T20:18:52.720Z,3.60
2023-03-07T20:21:21.076Z,3.60
2023-03-07T20:23:49.452Z,3.70
2023-03-07T20:26:20.033Z,3.70
2023-03-07T20:28:47.320Z,3.80
2023-03-07T20:31:14.387Z,3.80
2023-03-07T20:33:46.601Z,3.80
2023-03-07T20:36:29.841Z,3.80
2023-03-07T20:38:58.808Z,3.60
2023-03-07T20:41:28.965Z,3.70
2023-03-07T20:44:03.662Z,3.60
2023-03-07T20:46:32.309Z,3.70
2023-03-07T20:49:01.786Z,3.70
2023-03-07T20:51:33.967Z,3.70
2023-03-07T20:54:06.537Z,3.70
2023-03-07T20:56:35.060Z,3.60
2023-03-07T20:59:03.271Z,3.70
2023-03-07T21:01:32.739Z,3.90
2023-03-07T21:04:08.023Z,4.00
2023-03-07T21:06:36.390Z,4.10
2023-03-07T21:09:08.028Z,4.00
2023-03-07T21:11:37.184Z,4.00
2023-03-07T21:14:04.510Z,4.10
2023-03-07T21:16:32.038Z,3.80
2023-03-07T21:19:05.101Z,3.80
2023-03-07T21:21:33.711Z,3.90
2023-03-07T21:24:00.993Z,3.90
2023-03-07T21:26:31.637Z,3.90
2023-03-07T21:28:59.235Z,3.80
2023-03-07T21:31:28.634Z,3.80
2023-03-07T21:33:58.112Z,4.00
2023-03-07T21:36:29.297Z,3.90
2023-03-07T21:38:58.427Z,4.00
2023-03-07T21:41:29.285Z,3.90
2023-03-07T21:43:57.387Z,3.90
2023-03-07T21:46:25.255Z,4.00
2023-03-07T21:48:52.594Z,4.00
2023-03-07T21:51:20.377Z,4.00
2023-03-07T21:53:47.834Z,4.10
2023-03-07T21:56:19.208Z,4.10
2023-03-07T21:58:50.011Z,4.00
2023-03-07T22:01:24.028Z,4.10
2023-03-07T22:03:59.181Z,4.20
2023-03-07T22:06:28.286Z,4.10
2023-03-07T22:08:55.328Z,4.30
2023-03-07T22:11:22.679Z,4.40
2023-03-07T22:13:50.665Z,4.40
2023-03-07T22:16:20.655Z,4.40
2023-03-07T22:18:55.732Z,4.20
2023-03-07T22:21:26.043Z,4.20
2023-03-07T22:24:01.018Z,4.10
2023-03-07T22:26:30.582Z,4.10
2023-03-07T22:28:57.832Z,4.10
2023-03-07T22:31:25.896Z,3.90
2023-03-07T22:33:53.074Z,4.00
2023-03-07T22:36:20.239Z,4.00
2023-03-07T22:38:47.235Z,4.00
2023-03-07T22:41:16.842Z,3.80
2023-03-07T22:43:44.048Z,3.60
2023-03-07T22:46:11.777Z,3.50
2023-03-07T22:48:39.565Z,3.70
2023-03-07T22:51:13.328Z,3.80
2023-03-07T22:53:40.338Z,3.80
2023-03-07T22:56:25.595Z,4.00
2023-03-07T22:58:53.427Z,3.80
2023-03-07T23:01:23.358Z,3.70
2023-03-07T23:03:51.578Z,3.70
2023-03-07T23:06:20.937Z,3.90
2023-03-07T23:08:51.135Z,3.80
2023-03-07T23:11:21.303Z,3.90
2023-03-07T23:13:48.290Z,3.90
2023-03-07T23:16:17.731Z,3.80
2023-03-07T23:18:46.130Z,3.80
2023-03-07T23:21:15.727Z,3.90
2023-03-07T23:23:45.162Z,3.80
2023-03-07T23:26:22.324Z,3.70
2023-03-07T23:28:52.543Z,3.60
2023-03-07T23:31:29.458Z,3.70
2023-03-07T23:33:58.604Z,3.60
2023-03-07T23:36:27.592Z,3.40
2023-03-07T23:38:55.258Z,3.40
2023-03-07T23:41:22.694Z,3.30
2023-03-07T23:43:54.435Z,3.50
2023-03-07T23:46:22.108Z,3.70
2023-03-07T23:48:50.347Z,3.60
2023-03-07T23:51:17.302Z,3.60
2023-03-07T23:53:44.328Z,3.70
2023-03-07T23:56:12.605Z,3.80
2023-03-07T23:58:40.139Z,3.80
